sensor_id;sensor_type;location;lat;lon;timestamp;P1;durP1;ratioP1;P2;durP2;ratioP2
8219;SDS011;4151;51.110;7.020;2022-10-16T00:01:21;9.50;;;5.23;;
8219;SDS011;4151;51.110;7.020;2022-10-16T00:03:51;9.53;;;4.83;;
8219;SDS011;4151;51.110;7.020;2022-10-16T00:06:19;9.20;;;4.67;;
8219;SDS011;4151;51.110;7.020;2022-10-16T00:08:46;9.60;;;5.03;;
8219;SDS011;4151;51.110;7.020;2022-10-16T00:11:19;6.70;;;4.43;;
8219;SDS011;4151;51.110;7.020;2022-10-16T00:13:50;5.93;;;3.60;;
8219;SDS011;4151;51.110;7.020;2022-10-16T00:16:19;6.67;;;4.27;;
8219;SDS011;4151;51.110;7.020;2022-10-16T00:18:45;8.27;;;4.50;;
8219;SDS011;4151;51.110;7.020;2022-10-16T00:21:14;9.10;;;4.20;;
8219;SDS011;4151;51.110;7.020;2022-10-16T00:23:42;10.80;;;4.77;;
8219;SDS011;4151;51.110;7.020;2022-10-16T00:26:10;7.10;;;4.27;;
8219;SDS011;4151;51.110;7.020;2022-10-16T00:28:41;11.30;;;3.47;;
8219;SDS011;4151;51.110;7.020;2022-10-16T00:31:08;5.50;;;3.90;;
8219;SDS011;4151;51.110;7.020;2022-10-16T00:33:36;7.73;;;3.90;;
8219;SDS011;4151;51.110;7.020;2022-10-16T00:36:03;5.80;;;3.70;;
8219;SDS011;4151;51.110;7.020;2022-10-16T00:38:30;6.93;;;3.30;;
8219;SDS011;4151;51.110;7.020;2022-10-16T00:40:55;7.77;;;4.23;;
8219;SDS011;4151;51.110;7.020;2022-10-16T00:46:05;6.90;;;3.33;;
8219;SDS011;4151;51.110;7.020;2022-10-16T00:49:06;4.77;;;3.43;;
8219;SDS011;4151;51.110;7.020;2022-10-16T00:51:39;27.77;;;4.13;;
8219;SDS011;4151;51.110;7.020;2022-10-16T00:54:06;7.87;;;3.50;;
8219;SDS011;4151;51.110;7.020;2022-10-16T00:56:35;6.10;;;3.40;;
8219;SDS011;4151;51.110;7.020;2022-10-16T00:59:02;4.07;;;3.20;;
8219;SDS011;4151;51.110;7.020;2022-10-16T01:01:31;4.97;;;3.00;;
8219;SDS011;4151;51.110;7.020;2022-10-16T01:03:57;5.23;;;3.50;;
8219;SDS011;4151;51.110;7.020;2022-10-16T01:06:24;7.27;;;3.10;;
8219;SDS011;4151;51.110;7.020;2022-10-16T01:08:57;6.30;;;3.53;;
8219;SDS011;4151;51.110;7.020;2022-10-16T01:11:30;8.23;;;3.33;;
8219;SDS011;4151;51.110;7.020;2022-10-16T01:14:11;6.30;;;3.50;;
8219;SDS011;4151;51.110;7.020;2022-10-16T01:16:46;3.83;;;3.30;;
8219;SDS011;4151;51.110;7.020;2022-10-16T01:19:48;5.50;;;2.93;;
8219;SDS011;4151;51.110;7.020;2022-10-16T01:22:38;3.27;;;2.70;;
8219;SDS011;4151;51.110;7.020;2022-10-16T01:25:05;5.03;;;2.90;;
8219;SDS011;4151;51.110;7.020;2022-10-16T01:27:39;8.17;;;3.53;;
8219;SDS011;4151;51.110;7.020;2022-10-16T01:30:10;4.23;;;3.00;;
8219;SDS011;4151;51.110;7.020;2022-10-16T01:32:50;5.93;;;2.73;;
8219;SDS011;4151;51.110;7.020;2022-10-16T01:35:25;7.10;;;3.57;;
8219;SDS011;4151;51.110;7.020;2022-10-16T01:40:41;3.60;;;2.17;;
8219;SDS011;4151;51.110;7.020;2022-10-16T01:43:15;2.20;;;2.00;;
8219;SDS011;4151;51.110;7.020;2022-10-16T01:45:47;6.77;;;2.90;;
8219;SDS011;4151;51.110;7.020;2022-10-16T01:48:14;10.43;;;2.40;;
8219;SDS011;4151;51.110;7.020;2022-10-16T01:50:43;7.53;;;2.13;;
8219;SDS011;4151;51.110;7.020;2022-10-16T01:53:14;4.47;;;2.30;;
8219;SDS011;4151;51.110;7.020;2022-10-16T01:55:43;3.43;;;2.13;;
8219;SDS011;4151;51.110;7.020;2022-10-16T01:58:12;5.50;;;2.10;;
8219;SDS011;4151;51.110;7.020;2022-10-16T02:00:38;3.27;;;2.00;;
8219;SDS011;4151;51.110;7.020;2022-10-16T02:03:07;2.27;;;1.80;;
8219;SDS011;4151;51.110;7.020;2022-10-16T02:05:39;3.37;;;1.87;;
8219;SDS011;4151;51.110;7.020;2022-10-16T02:08:09;2.43;;;1.97;;
8219;SDS011;4151;51.110;7.020;2022-10-16T02:10:35;5.03;;;1.70;;
8219;SDS011;4151;51.110;7.020;2022-10-16T02:13:05;3.13;;;1.67;;
8219;SDS011;4151;51.110;7.020;2022-10-16T02:15:37;6.27;;;1.50;;
8219;SDS011;4151;51.110;7.020;2022-10-16T02:18:03;2.10;;;1.90;;
8219;SDS011;4151;51.110;7.020;2022-10-16T02:21:16;7.37;;;2.10;;
8219;SDS011;4151;51.110;7.020;2022-10-16T02:26:35;4.00;;;2.30;;
8219;SDS011;4151;51.110;7.020;2022-10-16T02:29:19;3.03;;;2.43;;
8219;SDS011;4151;51.110;7.020;2022-10-16T02:31:49;3.20;;;2.20;;
8219;SDS011;4151;51.110;7.020;2022-10-16T02:34:18;4.30;;;2.00;;
8219;SDS011;4151;51.110;7.020;2022-10-16T02:36:46;3.30;;;2.00;;
8219;SDS011;4151;51.110;7.020;2022-10-16T02:39:13;2.70;;;1.90;;
8219;SDS011;4151;51.110;7.020;2022-10-16T02:41:40;2.70;;;1.73;;
8219;SDS011;4151;51.110;7.020;2022-10-16T02:44:06;1.80;;;1.53;;
8219;SDS011;4151;51.110;7.020;2022-10-16T02:46:31;3.00;;;1.60;;
8219;SDS011;4151;51.110;7.020;2022-10-16T02:48:57;1.70;;;1.50;;
8219;SDS011;4151;51.110;7.020;2022-10-16T02:51:22;3.80;;;1.57;;
8219;SDS011;4151;51.110;7.020;2022-10-16T02:53:48;3.23;;;1.50;;
8219;SDS011;4151;51.110;7.020;2022-10-16T02:56:13;1.67;;;1.33;;
8219;SDS011;4151;51.110;7.020;2022-10-16T02:58:39;1.60;;;1.50;;
8219;SDS011;4151;51.110;7.020;2022-10-16T03:01:04;2.57;;;1.60;;
8219;SDS011;4151;51.110;7.020;2022-10-16T03:03:30;1.43;;;1.03;;
8219;SDS011;4151;51.110;7.020;2022-10-16T03:05:55;3.53;;;1.63;;
8219;SDS011;4151;51.110;7.020;2022-10-16T03:08:21;2.80;;;1.77;;
8219;SDS011;4151;51.110;7.020;2022-10-16T03:10:49;1.63;;;1.50;;
8219;SDS011;4151;51.110;7.020;2022-10-16T03:13:14;6.00;;;1.30;;
8219;SDS011;4151;51.110;7.020;2022-10-16T03:15:40;4.53;;;1.50;;
8219;SDS011;4151;51.110;7.020;2022-10-16T03:18:05;2.20;;;1.23;;
8219;SDS011;4151;51.110;7.020;2022-10-16T03:20:31;2.10;;;1.33;;
8219;SDS011;4151;51.110;7.020;2022-10-16T03:22:57;2.40;;;1.20;;
8219;SDS011;4151;51.110;7.020;2022-10-16T03:25:23;2.60;;;1.43;;
8219;SDS011;4151;51.110;7.020;2022-10-16T03:27:48;3.27;;;1.30;;
8219;SDS011;4151;51.110;7.020;2022-10-16T03:30:14;4.43;;;1.20;;
8219;SDS011;4151;51.110;7.020;2022-10-16T03:32:41;1.93;;;1.40;;
8219;SDS011;4151;51.110;7.020;2022-10-16T03:35:06;1.40;;;1.30;;
8219;SDS011;4151;51.110;7.020;2022-10-16T03:37:32;1.67;;;1.20;;
8219;SDS011;4151;51.110;7.020;2022-10-16T03:39:58;2.10;;;1.40;;
8219;SDS011;4151;51.110;7.020;2022-10-16T03:42:24;3.73;;;1.60;;
8219;SDS011;4151;51.110;7.020;2022-10-16T03:44:49;3.90;;;1.27;;
8219;SDS011;4151;51.110;7.020;2022-10-16T03:47:15;3.70;;;1.37;;
8219;SDS011;4151;51.110;7.020;2022-10-16T03:49:45;1.50;;;1.40;;
8219;SDS011;4151;51.110;7.020;2022-10-16T03:52:10;1.43;;;1.33;;
8219;SDS011;4151;51.110;7.020;2022-10-16T03:54:36;7.10;;;1.83;;
8219;SDS011;4151;51.110;7.020;2022-10-16T03:57:02;5.20;;;1.50;;
8219;SDS011;4151;51.110;7.020;2022-10-16T03:59:27;3.03;;;1.43;;
8219;SDS011;4151;51.110;7.020;2022-10-16T04:01:53;4.90;;;1.60;;
8219;SDS011;4151;51.110;7.020;2022-10-16T04:04:18;7.60;;;2.50;;
8219;SDS011;4151;51.110;7.020;2022-10-16T04:06:44;3.53;;;1.43;;
8219;SDS011;4151;51.110;7.020;2022-10-16T04:09:09;1.63;;;1.53;;
8219;SDS011;4151;51.110;7.020;2022-10-16T04:11:35;1.60;;;1.50;;
8219;SDS011;4151;51.110;7.020;2022-10-16T04:14:00;2.23;;;1.70;;
8219;SDS011;4151;51.110;7.020;2022-10-16T04:16:26;3.00;;;1.50;;
8219;SDS011;4151;51.110;7.020;2022-10-16T04:18:51;3.30;;;1.37;;
8219;SDS011;4151;51.110;7.020;2022-10-16T04:21:17;2.90;;;1.73;;
8219;SDS011;4151;51.110;7.020;2022-10-16T04:23:42;3.57;;;1.77;;
8219;SDS011;4151;51.110;7.020;2022-10-16T04:26:08;9.73;;;2.30;;
8219;SDS011;4151;51.110;7.020;2022-10-16T04:28:35;1.83;;;1.60;;
8219;SDS011;4151;51.110;7.020;2022-10-16T04:31:03;2.97;;;1.80;;
8219;SDS011;4151;51.110;7.020;2022-10-16T04:33:29;3.03;;;1.97;;
8219;SDS011;4151;51.110;7.020;2022-10-16T04:35:58;9.30;;;1.43;;
8219;SDS011;4151;51.110;7.020;2022-10-16T04:38:27;6.60;;;2.10;;
8219;SDS011;4151;51.110;7.020;2022-10-16T04:40:53;4.87;;;1.67;;
8219;SDS011;4151;51.110;7.020;2022-10-16T04:43:19;3.50;;;1.60;;
8219;SDS011;4151;51.110;7.020;2022-10-16T04:45:45;2.13;;;1.80;;
8219;SDS011;4151;51.110;7.020;2022-10-16T04:48:11;2.23;;;1.60;;
8219;SDS011;4151;51.110;7.020;2022-10-16T04:50:36;10.50;;;2.17;;
8219;SDS011;4151;51.110;7.020;2022-10-16T04:53:02;3.03;;;1.63;;
8219;SDS011;4151;51.110;7.020;2022-10-16T04:55:28;2.00;;;1.70;;
8219;SDS011;4151;51.110;7.020;2022-10-16T04:57:53;4.40;;;1.37;;
8219;SDS011;4151;51.110;7.020;2022-10-16T05:00:19;2.30;;;2.10;;
8219;SDS011;4151;51.110;7.020;2022-10-16T05:02:44;1.53;;;1.43;;
8219;SDS011;4151;51.110;7.020;2022-10-16T05:05:10;8.97;;;1.97;;
8219;SDS011;4151;51.110;7.020;2022-10-16T05:07:36;2.23;;;2.00;;
8219;SDS011;4151;51.110;7.020;2022-10-16T05:10:02;5.70;;;1.83;;
8219;SDS011;4151;51.110;7.020;2022-10-16T05:12:28;2.70;;;2.03;;
8219;SDS011;4151;51.110;7.020;2022-10-16T05:14:53;3.70;;;1.80;;
8219;SDS011;4151;51.110;7.020;2022-10-16T05:17:23;5.03;;;2.23;;
8219;SDS011;4151;51.110;7.020;2022-10-16T05:19:50;1.40;;;1.30;;
8219;SDS011;4151;51.110;7.020;2022-10-16T05:22:15;4.80;;;1.90;;
8219;SDS011;4151;51.110;7.020;2022-10-16T05:24:41;3.43;;;2.10;;
8219;SDS011;4151;51.110;7.020;2022-10-16T05:27:06;2.00;;;1.80;;
8219;SDS011;4151;51.110;7.020;2022-10-16T05:29:32;3.60;;;1.90;;
8219;SDS011;4151;51.110;7.020;2022-10-16T05:31:58;1.80;;;1.70;;
8219;SDS011;4151;51.110;7.020;2022-10-16T05:34:23;2.17;;;1.83;;
8219;SDS011;4151;51.110;7.020;2022-10-16T05:36:49;2.10;;;1.73;;
8219;SDS011;4151;51.110;7.020;2022-10-16T05:39:15;8.60;;;2.00;;
8219;SDS011;4151;51.110;7.020;2022-10-16T05:41:41;2.67;;;1.70;;
8219;SDS011;4151;51.110;7.020;2022-10-16T05:44:07;2.77;;;1.87;;
8219;SDS011;4151;51.110;7.020;2022-10-16T05:46:33;2.03;;;1.87;;
8219;SDS011;4151;51.110;7.020;2022-10-16T05:48:58;3.23;;;1.90;;
8219;SDS011;4151;51.110;7.020;2022-10-16T05:51:24;8.20;;;2.30;;
8219;SDS011;4151;51.110;7.020;2022-10-16T05:53:50;2.20;;;1.90;;
8219;SDS011;4151;51.110;7.020;2022-10-16T05:56:16;3.77;;;2.10;;
8219;SDS011;4151;51.110;7.020;2022-10-16T05:58:42;2.20;;;2.00;;
8219;SDS011;4151;51.110;7.020;2022-10-16T06:01:13;7.10;;;1.87;;
8219;SDS011;4151;51.110;7.020;2022-10-16T06:03:41;6.80;;;2.53;;
8219;SDS011;4151;51.110;7.020;2022-10-16T06:06:07;3.50;;;2.00;;
8219;SDS011;4151;51.110;7.020;2022-10-16T06:08:34;6.93;;;1.87;;
8219;SDS011;4151;51.110;7.020;2022-10-16T06:11:01;4.30;;;1.97;;
8219;SDS011;4151;51.110;7.020;2022-10-16T06:13:28;7.80;;;2.40;;
8219;SDS011;4151;51.110;7.020;2022-10-16T06:15:56;1.90;;;1.70;;
8219;SDS011;4151;51.110;7.020;2022-10-16T06:18:23;3.10;;;1.77;;
8219;SDS011;4151;51.110;7.020;2022-10-16T06:20:49;4.97;;;2.13;;
8219;SDS011;4151;51.110;7.020;2022-10-16T06:23:14;4.80;;;2.37;;
8219;SDS011;4151;51.110;7.020;2022-10-16T06:25:40;4.63;;;1.97;;
8219;SDS011;4151;51.110;7.020;2022-10-16T06:28:05;10.43;;;3.03;;
8219;SDS011;4151;51.110;7.020;2022-10-16T06:30:31;4.53;;;2.00;;
8219;SDS011;4151;51.110;7.020;2022-10-16T06:32:56;4.03;;;2.10;;
8219;SDS011;4151;51.110;7.020;2022-10-16T06:35:22;4.00;;;1.80;;
8219;SDS011;4151;51.110;7.020;2022-10-16T06:37:48;5.97;;;1.70;;
8219;SDS011;4151;51.110;7.020;2022-10-16T06:40:14;3.90;;;1.90;;
8219;SDS011;4151;51.110;7.020;2022-10-16T06:42:40;2.90;;;1.90;;
8219;SDS011;4151;51.110;7.020;2022-10-16T06:45:06;1.60;;;1.50;;
8219;SDS011;4151;51.110;7.020;2022-10-16T06:47:31;1.60;;;1.47;;
8219;SDS011;4151;51.110;7.020;2022-10-16T06:49:57;2.00;;;1.90;;
8219;SDS011;4151;51.110;7.020;2022-10-16T06:52:23;1.83;;;1.60;;
8219;SDS011;4151;51.110;7.020;2022-10-16T06:54:49;6.57;;;1.63;;
8219;SDS011;4151;51.110;7.020;2022-10-16T06:57:14;2.00;;;1.90;;
8219;SDS011;4151;51.110;7.020;2022-10-16T06:59:40;2.73;;;1.73;;
8219;SDS011;4151;51.110;7.020;2022-10-16T07:02:06;5.60;;;1.47;;
8219;SDS011;4151;51.110;7.020;2022-10-16T07:04:33;1.33;;;1.23;;
8219;SDS011;4151;51.110;7.020;2022-10-16T07:07:00;2.93;;;1.93;;
8219;SDS011;4151;51.110;7.020;2022-10-16T07:09:25;6.13;;;1.87;;
8219;SDS011;4151;51.110;7.020;2022-10-16T07:11:51;1.60;;;1.50;;
8219;SDS011;4151;51.110;7.020;2022-10-16T07:14:17;1.30;;;1.20;;
8219;SDS011;4151;51.110;7.020;2022-10-16T07:16:44;2.80;;;1.40;;
8219;SDS011;4151;51.110;7.020;2022-10-16T07:19:10;2.83;;;1.80;;
8219;SDS011;4151;51.110;7.020;2022-10-16T07:21:37;2.53;;;1.30;;
8219;SDS011;4151;51.110;7.020;2022-10-16T07:24:04;3.10;;;1.20;;
8219;SDS011;4151;51.110;7.020;2022-10-16T07:26:32;3.90;;;1.40;;
8219;SDS011;4151;51.110;7.020;2022-10-16T07:29:00;1.77;;;1.20;;
8219;SDS011;4151;51.110;7.020;2022-10-16T07:31:25;4.73;;;2.17;;
8219;SDS011;4151;51.110;7.020;2022-10-16T07:33:51;3.00;;;1.43;;
8219;SDS011;4151;51.110;7.020;2022-10-16T07:36:18;1.70;;;1.60;;
8219;SDS011;4151;51.110;7.020;2022-10-16T07:38:44;5.43;;;1.97;;
8219;SDS011;4151;51.110;7.020;2022-10-16T07:41:17;1.60;;;1.50;;
8219;SDS011;4151;51.110;7.020;2022-10-16T07:43:50;3.63;;;1.67;;
8219;SDS011;4151;51.110;7.020;2022-10-16T07:46:17;6.43;;;2.03;;
8219;SDS011;4151;51.110;7.020;2022-10-16T07:48:44;3.77;;;1.87;;
8219;SDS011;4151;51.110;7.020;2022-10-16T07:51:13;1.60;;;1.50;;
8219;SDS011;4151;51.110;7.020;2022-10-16T07:53:43;2.43;;;1.97;;
8219;SDS011;4151;51.110;7.020;2022-10-16T07:56:09;2.43;;;1.80;;
8219;SDS011;4151;51.110;7.020;2022-10-16T07:58:35;1.73;;;1.60;;
8219;SDS011;4151;51.110;7.020;2022-10-16T08:01:05;5.57;;;1.83;;
8219;SDS011;4151;51.110;7.020;2022-10-16T08:03:32;2.60;;;1.40;;
8219;SDS011;4151;51.110;7.020;2022-10-16T08:05:59;5.00;;;2.23;;
8219;SDS011;4151;51.110;7.020;2022-10-16T08:08:25;7.03;;;1.70;;
8219;SDS011;4151;51.110;7.020;2022-10-16T08:10:52;1.80;;;1.33;;
8219;SDS011;4151;51.110;7.020;2022-10-16T08:13:17;2.83;;;1.40;;
8219;SDS011;4151;51.110;7.020;2022-10-16T08:15:43;2.20;;;1.67;;
8219;SDS011;4151;51.110;7.020;2022-10-16T08:18:10;5.30;;;1.37;;
8219;SDS011;4151;51.110;7.020;2022-10-16T08:20:37;1.83;;;1.43;;
8219;SDS011;4151;51.110;7.020;2022-10-16T08:23:03;1.97;;;1.50;;
8219;SDS011;4151;51.110;7.020;2022-10-16T08:25:29;2.37;;;1.43;;
8219;SDS011;4151;51.110;7.020;2022-10-16T08:27:55;2.23;;;1.27;;
8219;SDS011;4151;51.110;7.020;2022-10-16T08:30:21;6.00;;;1.20;;
8219;SDS011;4151;51.110;7.020;2022-10-16T08:32:48;5.83;;;1.73;;
8219;SDS011;4151;51.110;7.020;2022-10-16T08:35:15;3.03;;;1.30;;
8219;SDS011;4151;51.110;7.020;2022-10-16T08:37:41;4.30;;;1.30;;
8219;SDS011;4151;51.110;7.020;2022-10-16T08:40:27;2.10;;;1.20;;
8219;SDS011;4151;51.110;7.020;2022-10-16T08:48:20;4.30;;;1.10;;
8219;SDS011;4151;51.110;7.020;2022-10-16T08:50:53;9.43;;;1.03;;
8219;SDS011;4151;51.110;7.020;2022-10-16T08:53:31;1.20;;;1.10;;
8219;SDS011;4151;51.110;7.020;2022-10-16T08:56:05;2.30;;;0.93;;
8219;SDS011;4151;51.110;7.020;2022-10-16T08:58:31;1.17;;;1.00;;
8219;SDS011;4151;51.110;7.020;2022-10-16T09:00:58;3.47;;;1.03;;
8219;SDS011;4151;51.110;7.020;2022-10-16T09:19:51;3.37;;;1.20;;
8219;SDS011;4151;51.110;7.020;2022-10-16T09:22:36;2.20;;;0.90;;
8219;SDS011;4151;51.110;7.020;2022-10-16T09:25:10;5.50;;;1.27;;
8219;SDS011;4151;51.110;7.020;2022-10-16T09:27:38;2.80;;;1.10;;
8219;SDS011;4151;51.110;7.020;2022-10-16T09:30:11;5.40;;;1.03;;
8219;SDS011;4151;51.110;7.020;2022-10-16T09:32:42;2.50;;;1.00;;
8219;SDS011;4151;51.110;7.020;2022-10-16T09:35:17;1.77;;;0.73;;
8219;SDS011;4151;51.110;7.020;2022-10-16T09:37:56;1.87;;;0.90;;
8219;SDS011;4151;51.110;7.020;2022-10-16T09:40:34;5.20;;;1.50;;
8219;SDS011;4151;51.110;7.020;2022-10-16T09:43:22;3.20;;;0.90;;
8219;SDS011;4151;51.110;7.020;2022-10-16T09:46:08;1.40;;;0.97;;
8219;SDS011;4151;51.110;7.020;2022-10-16T09:48:49;2.90;;;1.10;;
8219;SDS011;4151;51.110;7.020;2022-10-16T09:51:26;3.50;;;1.20;;
8219;SDS011;4151;51.110;7.020;2022-10-16T09:54:00;3.40;;;0.80;;
8219;SDS011;4151;51.110;7.020;2022-10-16T09:56:28;2.73;;;1.07;;
8219;SDS011;4151;51.110;7.020;2022-10-16T09:58:58;4.00;;;0.90;;
8219;SDS011;4151;51.110;7.020;2022-10-16T10:01:36;1.63;;;0.97;;
8219;SDS011;4151;51.110;7.020;2022-10-16T10:04:05;1.77;;;1.00;;
8219;SDS011;4151;51.110;7.020;2022-10-16T10:06:33;1.87;;;0.80;;
8219;SDS011;4151;51.110;7.020;2022-10-16T10:11:41;3.00;;;1.13;;
8219;SDS011;4151;51.110;7.020;2022-10-16T10:19:37;1.30;;;0.80;;
8219;SDS011;4151;51.110;7.020;2022-10-16T10:27:47;1.70;;;0.87;;
8219;SDS011;4151;51.110;7.020;2022-10-16T10:30:41;3.20;;;1.27;;
8219;SDS011;4151;51.110;7.020;2022-10-16T10:33:17;4.60;;;1.00;;
8219;SDS011;4151;51.110;7.020;2022-10-16T10:35:59;3.63;;;1.07;;
8219;SDS011;4151;51.110;7.020;2022-10-16T10:58:12;3.77;;;1.00;;
8219;SDS011;4151;51.110;7.020;2022-10-16T11:00:56;1.87;;;1.03;;
8219;SDS011;4151;51.110;7.020;2022-10-16T11:09:25;1.10;;;0.80;;
8219;SDS011;4151;51.110;7.020;2022-10-16T11:17:25;2.60;;;1.00;;
8219;SDS011;4151;51.110;7.020;2022-10-16T11:20:05;2.33;;;1.50;;
8219;SDS011;4151;51.110;7.020;2022-10-16T11:22:44;3.27;;;1.20;;
8219;SDS011;4151;51.110;7.020;2022-10-16T11:25:19;2.70;;;0.90;;
8219;SDS011;4151;51.110;7.020;2022-10-16T11:27:50;1.93;;;1.00;;
8219;SDS011;4151;51.110;7.020;2022-10-16T11:30:39;4.50;;;1.10;;
8219;SDS011;4151;51.110;7.020;2022-10-16T11:33:19;2.60;;;0.80;;
8219;SDS011;4151;51.110;7.020;2022-10-16T11:36:00;2.10;;;0.73;;
8219;SDS011;4151;51.110;7.020;2022-10-16T11:38:53;2.40;;;1.30;;
8219;SDS011;4151;51.110;7.020;2022-10-16T11:41:28;1.73;;;0.90;;
8219;SDS011;4151;51.110;7.020;2022-10-16T11:46:52;3.77;;;1.10;;
8219;SDS011;4151;51.110;7.020;2022-10-16T11:49:30;1.27;;;0.93;;
8219;SDS011;4151;51.110;7.020;2022-10-16T11:54:37;1.57;;;1.03;;
8219;SDS011;4151;51.110;7.020;2022-10-16T11:57:13;1.83;;;1.00;;
8219;SDS011;4151;51.110;7.020;2022-10-16T12:08:02;3.10;;;1.00;;
8219;SDS011;4151;51.110;7.020;2022-10-16T12:10:37;2.40;;;1.10;;
8219;SDS011;4151;51.110;7.020;2022-10-16T12:13:04;3.23;;;1.10;;
8219;SDS011;4151;51.110;7.020;2022-10-16T12:15:50;2.70;;;1.00;;
8219;SDS011;4151;51.110;7.020;2022-10-16T12:18:22;1.47;;;0.80;;
8219;SDS011;4151;51.110;7.020;2022-10-16T12:20:55;3.13;;;1.00;;
8219;SDS011;4151;51.110;7.020;2022-10-16T12:23:29;5.40;;;0.90;;
8219;SDS011;4151;51.110;7.020;2022-10-16T12:25:56;3.53;;;0.90;;
8219;SDS011;4151;51.110;7.020;2022-10-16T12:28:28;4.70;;;0.93;;
8219;SDS011;4151;51.110;7.020;2022-10-16T12:30:59;1.30;;;0.90;;
8219;SDS011;4151;51.110;7.020;2022-10-16T12:33:33;1.00;;;0.63;;
8219;SDS011;4151;51.110;7.020;2022-10-16T12:36:07;1.63;;;0.97;;
8219;SDS011;4151;51.110;7.020;2022-10-16T12:38:47;1.83;;;0.93;;
8219;SDS011;4151;51.110;7.020;2022-10-16T12:41:24;3.47;;;1.00;;
8219;SDS011;4151;51.110;7.020;2022-10-16T12:43:54;2.07;;;0.93;;
8219;SDS011;4151;51.110;7.020;2022-10-16T12:46:24;3.00;;;1.20;;
8219;SDS011;4151;51.110;7.020;2022-10-16T12:49:06;2.00;;;0.70;;
8219;SDS011;4151;51.110;7.020;2022-10-16T12:51:38;1.83;;;0.83;;
8219;SDS011;4151;51.110;7.020;2022-10-16T12:56:46;1.60;;;0.90;;
8219;SDS011;4151;51.110;7.020;2022-10-16T12:59:35;2.10;;;0.87;;
8219;SDS011;4151;51.110;7.020;2022-10-16T13:08:04;4.43;;;0.70;;
8219;SDS011;4151;51.110;7.020;2022-10-16T13:10:58;5.60;;;0.97;;
8219;SDS011;4151;51.110;7.020;2022-10-16T13:18:54;5.33;;;0.90;;
8219;SDS011;4151;51.110;7.020;2022-10-16T13:24:40;4.00;;;0.90;;
8219;SDS011;4151;51.110;7.020;2022-10-16T13:33:02;2.87;;;0.87;;
8219;SDS011;4151;51.110;7.020;2022-10-16T13:35:37;4.03;;;1.00;;
8219;SDS011;4151;51.110;7.020;2022-10-16T13:40:53;3.30;;;1.00;;
8219;SDS011;4151;51.110;7.020;2022-10-16T13:46:17;2.40;;;0.80;;
8219;SDS011;4151;51.110;7.020;2022-10-16T13:48:59;4.60;;;0.80;;
8219;SDS011;4151;51.110;7.020;2022-10-16T13:51:29;3.57;;;0.90;;
8219;SDS011;4151;51.110;7.020;2022-10-16T13:53:56;3.10;;;0.70;;
8219;SDS011;4151;51.110;7.020;2022-10-16T13:56:24;1.53;;;0.77;;
8219;SDS011;4151;51.110;7.020;2022-10-16T13:59:01;1.40;;;0.80;;
8219;SDS011;4151;51.110;7.020;2022-10-16T14:01:48;1.50;;;0.80;;
8219;SDS011;4151;51.110;7.020;2022-10-16T14:04:15;1.40;;;0.70;;
8219;SDS011;4151;51.110;7.020;2022-10-16T14:06:44;1.37;;;0.70;;
8219;SDS011;4151;51.110;7.020;2022-10-16T14:11:49;4.40;;;0.90;;
8219;SDS011;4151;51.110;7.020;2022-10-16T14:14:29;6.20;;;1.17;;
8219;SDS011;4151;51.110;7.020;2022-10-16T14:17:15;2.50;;;0.90;;
8219;SDS011;4151;51.110;7.020;2022-10-16T14:19:45;1.03;;;0.73;;
8219;SDS011;4151;51.110;7.020;2022-10-16T14:25:02;2.93;;;0.90;;
8219;SDS011;4151;51.110;7.020;2022-10-16T14:27:44;6.70;;;2.20;;
8219;SDS011;4151;51.110;7.020;2022-10-16T14:30:16;1.83;;;1.30;;
8219;SDS011;4151;51.110;7.020;2022-10-16T14:32:54;7.70;;;5.13;;
8219;SDS011;4151;51.110;7.020;2022-10-16T14:35:31;3.23;;;2.80;;
8219;SDS011;4151;51.110;7.020;2022-10-16T14:37:59;2.60;;;1.40;;
8219;SDS011;4151;51.110;7.020;2022-10-16T14:40:33;1.97;;;1.43;;
8219;SDS011;4151;51.110;7.020;2022-10-16T14:43:01;1.87;;;1.03;;
8219;SDS011;4151;51.110;7.020;2022-10-16T14:45:28;1.53;;;1.00;;
8219;SDS011;4151;51.110;7.020;2022-10-16T14:47:57;3.67;;;0.83;;
8219;SDS011;4151;51.110;7.020;2022-10-16T14:50:25;1.90;;;0.90;;
8219;SDS011;4151;51.110;7.020;2022-10-16T14:52:51;1.20;;;0.77;;
8219;SDS011;4151;51.110;7.020;2022-10-16T14:55:16;3.30;;;0.90;;
8219;SDS011;4151;51.110;7.020;2022-10-16T14:57:42;0.93;;;0.83;;
8219;SDS011;4151;51.110;7.020;2022-10-16T15:00:13;2.57;;;1.07;;
8219;SDS011;4151;51.110;7.020;2022-10-16T15:02:47;2.37;;;1.13;;
8219;SDS011;4151;51.110;7.020;2022-10-16T15:05:15;1.57;;;1.20;;
8219;SDS011;4151;51.110;7.020;2022-10-16T15:07:43;2.40;;;0.90;;
8219;SDS011;4151;51.110;7.020;2022-10-16T15:10:10;2.33;;;1.00;;
8219;SDS011;4151;51.110;7.020;2022-10-16T15:12:37;2.80;;;1.17;;
8219;SDS011;4151;51.110;7.020;2022-10-16T15:15:23;1.00;;;0.70;;
8219;SDS011;4151;51.110;7.020;2022-10-16T15:17:50;3.60;;;0.80;;
8219;SDS011;4151;51.110;7.020;2022-10-16T15:20:26;2.00;;;0.90;;
8219;SDS011;4151;51.110;7.020;2022-10-16T15:22:53;1.00;;;0.70;;
8219;SDS011;4151;51.110;7.020;2022-10-16T15:25:27;1.20;;;0.77;;
8219;SDS011;4151;51.110;7.020;2022-10-16T15:27:56;1.83;;;0.80;;
8219;SDS011;4151;51.110;7.020;2022-10-16T15:30:22;1.20;;;0.73;;
8219;SDS011;4151;51.110;7.020;2022-10-16T15:32:48;1.30;;;0.90;;
8219;SDS011;4151;51.110;7.020;2022-10-16T15:35:14;3.07;;;1.40;;
8219;SDS011;4151;51.110;7.020;2022-10-16T15:37:39;2.60;;;1.33;;
8219;SDS011;4151;51.110;7.020;2022-10-16T15:40:05;1.67;;;1.20;;
8219;SDS011;4151;51.110;7.020;2022-10-16T15:42:31;2.23;;;0.90;;
8219;SDS011;4151;51.110;7.020;2022-10-16T15:44:56;1.67;;;1.07;;
8219;SDS011;4151;51.110;7.020;2022-10-16T15:47:22;4.27;;;1.13;;
8219;SDS011;4151;51.110;7.020;2022-10-16T15:49:47;2.50;;;1.10;;
8219;SDS011;4151;51.110;7.020;2022-10-16T15:52:13;2.00;;;1.20;;
8219;SDS011;4151;51.110;7.020;2022-10-16T15:54:38;1.27;;;0.90;;
8219;SDS011;4151;51.110;7.020;2022-10-16T15:57:04;2.47;;;1.30;;
8219;SDS011;4151;51.110;7.020;2022-10-16T15:59:29;5.10;;;1.30;;
8219;SDS011;4151;51.110;7.020;2022-10-16T16:01:55;1.70;;;1.50;;
8219;SDS011;4151;51.110;7.020;2022-10-16T16:04:20;2.80;;;1.63;;
8219;SDS011;4151;51.110;7.020;2022-10-16T16:06:46;3.40;;;1.33;;
8219;SDS011;4151;51.110;7.020;2022-10-16T16:09:12;2.23;;;0.90;;
8219;SDS011;4151;51.110;7.020;2022-10-16T16:11:38;2.27;;;1.17;;
8219;SDS011;4151;51.110;7.020;2022-10-16T16:14:05;2.80;;;1.00;;
8219;SDS011;4151;51.110;7.020;2022-10-16T16:16:31;4.00;;;1.23;;
8219;SDS011;4151;51.110;7.020;2022-10-16T16:19:02;12.27;;;1.47;;
8219;SDS011;4151;51.110;7.020;2022-10-16T16:21:28;7.93;;;1.40;;
8219;SDS011;4151;51.110;7.020;2022-10-16T16:23:54;1.90;;;1.10;;
8219;SDS011;4151;51.110;7.020;2022-10-16T16:26:38;1.67;;;1.00;;
8219;SDS011;4151;51.110;7.020;2022-10-16T16:29:08;3.50;;;1.30;;
8219;SDS011;4151;51.110;7.020;2022-10-16T16:31:37;4.93;;;1.73;;
8219;SDS011;4151;51.110;7.020;2022-10-16T16:34:03;3.53;;;2.17;;
8219;SDS011;4151;51.110;7.020;2022-10-16T16:36:29;7.90;;;2.00;;
8219;SDS011;4151;51.110;7.020;2022-10-16T16:38:55;3.00;;;1.50;;
8219;SDS011;4151;51.110;7.020;2022-10-16T16:41:22;2.77;;;1.50;;
8219;SDS011;4151;51.110;7.020;2022-10-16T16:43:50;5.40;;;2.10;;
8219;SDS011;4151;51.110;7.020;2022-10-16T16:46:16;4.50;;;2.37;;
8219;SDS011;4151;51.110;7.020;2022-10-16T16:48:43;10.50;;;3.17;;
8219;SDS011;4151;51.110;7.020;2022-10-16T16:51:10;7.23;;;2.57;;
8219;SDS011;4151;51.110;7.020;2022-10-16T16:53:45;3.67;;;1.77;;
8219;SDS011;4151;51.110;7.020;2022-10-16T16:56:12;3.60;;;1.97;;
8219;SDS011;4151;51.110;7.020;2022-10-16T16:58:38;5.83;;;3.20;;
8219;SDS011;4151;51.110;7.020;2022-10-16T17:01:04;5.33;;;2.43;;
8219;SDS011;4151;51.110;7.020;2022-10-16T17:03:33;5.03;;;1.53;;
8219;SDS011;4151;51.110;7.020;2022-10-16T17:06:04;6.20;;;1.03;;
8219;SDS011;4151;51.110;7.020;2022-10-16T17:08:32;3.53;;;1.10;;
8219;SDS011;4151;51.110;7.020;2022-10-16T17:10:59;1.13;;;1.03;;
8219;SDS011;4151;51.110;7.020;2022-10-16T17:13:25;3.00;;;1.47;;
8219;SDS011;4151;51.110;7.020;2022-10-16T17:15:52;4.40;;;1.70;;
8219;SDS011;4151;51.110;7.020;2022-10-16T17:18:18;3.60;;;1.40;;
8219;SDS011;4151;51.110;7.020;2022-10-16T17:20:45;2.90;;;1.17;;
8219;SDS011;4151;51.110;7.020;2022-10-16T17:23:12;2.57;;;1.03;;
8219;SDS011;4151;51.110;7.020;2022-10-16T17:25:38;2.40;;;1.00;;
8219;SDS011;4151;51.110;7.020;2022-10-16T17:28:05;5.27;;;1.30;;
8219;SDS011;4151;51.110;7.020;2022-10-16T17:30:32;4.53;;;1.20;;
8219;SDS011;4151;51.110;7.020;2022-10-16T17:32:59;6.10;;;1.30;;